Time;durP1;ratioP1;P1;durP2;ratioP2;P2;SDS_P1;SDS_P2;PMS_P1;PMS_P2;Temp;Humidity;BMP_temperature;BMP_pressure;BME280_temperature;BME280_humidity;BME280_pressure;Samples;Min_cycle;Max_cycle;Signal;HPM_P1;HPM_P2
2022/04/07 00:01:05;;;;;;;7.67;5.27;;;;;;;;;;5052531;28;20561;-85
2022/04/07 00:03:34;;;;;;;7.03;5.23;;;;;;;;;;5051573;28;20285;-84
2022/04/07 00:06:01;;;;;;;8.73;5.50;;;;;;;;;;5053156;28;20221;-84
2022/04/07 00:08:28;;;;;;;11.23;5.67;;;;;;;;;;5054010;28;20194;-84
2022/04/07 00:10:55;;;;;;;6.97;5.27;;;;;;;;;;5052644;28;20212;-84
2022/04/07 00:13:23;;;;;;;8.63;5.97;;;;;;;;;;5052974;28;20288;-84
2022/04/07 00:15:52;;;;;;;9.53;5.30;;;;;;;;;;5053645;28;20212;-84
2022/04/07 00:18:19;;;;;;;6.60;5.60;;;;;;;;;;5053734;28;20190;-85
2022/04/07 00:20:51;;;;;;;5.17;4.67;;;;;;;;;;5051945;28;20264;-84
2022/04/07 00:23:18;;;;;;;6.40;4.83;;;;;;;;;;5052090;28;20268;-85
2022/04/07 00:25:45;;;;;;;5.27;4.80;;;;;;;;;;5053157;28;20321;-85
2022/04/07 00:28:12;;;;;;;7.17;5.33;;;;;;;;;;5052475;28;20221;-86
2022/04/07 00:30:40;;;;;;;6.97;5.37;;;;;;;;;;5053192;28;20557;-84
2022/04/07 00:33:08;;;;;;;7.40;5.87;;;;;;;;;;5044889;28;20209;-85
2022/04/07 00:35:35;;;;;;;6.43;5.20;;;;;;;;;;5053513;28;20244;-85
2022/04/07 00:38:04;;;;;;;5.97;5.43;;;;;;;;;;5052245;28;20201;-84
2022/04/07 00:40:32;;;;;;;8.13;5.27;;;;;;;;;;5052224;28;20209;-84
2022/04/07 00:42:59;;;;;;;6.33;5.63;;;;;;;;;;5052258;28;20694;-84
2022/04/07 00:45:26;;;;;;;6.30;5.03;;;;;;;;;;5052112;28;20221;-84
2022/04/07 00:47:53;;;;;;;5.73;5.23;;;;;;;;;;5050808;28;20206;-84
2022/04/07 00:50:22;;;;;;;5.60;5.07;;;;;;;;;;5052704;28;20556;-84
2022/04/07 00:52:53;;;;;;;5.97;5.47;;;;;;;;;;5052953;28;20200;-85
2022/04/07 00:55:22;;;;;;;6.87;6.23;;;;;;;;;;5049773;28;20190;-84
2022/04/07 00:57:49;;;;;;;7.70;5.13;;;;;;;;;;5052867;28;20202;-84
2022/04/07 01:00:16;;;;;;;9.07;6.33;;;;;;;;;;5050991;28;20284;-84
2022/04/07 01:02:44;;;;;;;6.07;5.17;;;;;;;;;;5052056;28;20202;-85
2022/04/07 01:05:12;;;;;;;5.67;5.17;;;;;;;;;;5052369;28;20706;-85
2022/04/07 01:07:39;;;;;;;5.77;5.10;;;;;;;;;;5052299;28;20290;-85
2022/04/07 01:10:08;;;;;;;6.63;5.93;;;;;;;;;;5052850;28;20194;-85
2022/04/07 01:12:37;;;;;;;10.57;6.93;;;;;;;;;;5051858;28;20617;-85
2022/04/07 01:15:07;;;;;;;7.00;6.30;;;;;;;;;;5052228;28;20685;-86
2022/04/07 01:17:35;;;;;;;5.67;5.17;;;;;;;;;;5052799;28;20205;-85
2022/04/07 01:20:03;;;;;;;6.30;5.67;;;;;;;;;;5052354;28;20209;-85
2022/04/07 01:22:30;;;;;;;8.93;5.37;;;;;;;;;;5052744;28;20198;-85
2022/04/07 01:24:59;;;;;;;5.97;5.37;;;;;;;;;;5051358;28;20284;-85
2022/04/07 01:27:27;;;;;;;5.67;5.03;;;;;;;;;;5051046;28;20701;-86
2022/04/07 01:29:56;;;;;;;6.57;5.93;;;;;;;;;;5052141;28;20198;-85
2022/04/07 01:32:28;;;;;;;7.23;5.50;;;;;;;;;;5052313;28;20194;-85
2022/04/07 01:34:55;;;;;;;6.33;5.73;;;;;;;;;;5046650;28;20210;-85
2022/04/07 01:37:22;;;;;;;6.37;5.77;;;;;;;;;;5051878;28;20577;-85
2022/04/07 01:39:50;;;;;;;7.00;6.30;;;;;;;;;;5052057;28;20232;-85
2022/04/07 01:42:19;;;;;;;10.07;5.87;;;;;;;;;;5052037;28;20202;-85
2022/04/07 01:44:49;;;;;;;6.27;5.67;;;;;;;;;;5051858;28;20204;-85
2022/04/07 01:47:20;;;;;;;7.23;5.37;;;;;;;;;;5052049;28;20182;-84
2022/04/07 01:49:53;;;;;;;6.93;5.83;;;;;;;;;;5051878;28;20189;-85
2022/04/07 01:52:20;;;;;;;6.00;5.40;;;;;;;;;;5052276;28;20264;-86
2022/04/07 01:54:48;;;;;;;6.93;4.87;;;;;;;;;;5051504;28;20235;-86
2022/04/07 01:57:16;;;;;;;5.43;4.93;;;;;;;;;;5051981;28;20198;-86
2022/04/07 01:59:44;;;;;;;7.60;6.07;;;;;;;;;;5051953;28;20666;-86
2022/04/07 02:02:12;;;;;;;6.47;5.83;;;;;;;;;;5051775;28;20197;-87
2022/04/07 02:04:53;;;;;;;5.33;4.83;;;;;;;;;;5051700;28;20209;-86
2022/04/07 02:07:20;;;;;;;7.50;5.50;;;;;;;;;;5052318;28;20200;-86
2022/04/07 02:09:48;;;;;;;5.67;4.93;;;;;;;;;;5051557;28;20194;-85
2022/04/07 02:12:20;;;;;;;5.00;4.50;;;;;;;;;;5051861;28;20290;-86
2022/04/07 02:14:49;;;;;;;7.03;5.70;;;;;;;;;;5051438;28;20190;-86
2022/04/07 02:17:20;;;;;;;6.77;5.60;;;;;;;;;;5051929;28;20248;-85
2022/04/07 02:19:49;;;;;;;7.80;5.40;;;;;;;;;;5051513;28;20674;-86
2022/04/07 02:22:16;;;;;;;5.80;5.30;;;;;;;;;;5051958;28;20202;-86
2022/04/07 02:24:43;;;;;;;6.67;5.00;;;;;;;;;;5051549;28;20319;-85
2022/04/07 02:27:11;;;;;;;7.13;5.60;;;;;;;;;;5051469;28;20697;-86
2022/04/07 02:29:38;;;;;;;6.43;5.83;;;;;;;;;;5051781;28;20658;-86
2022/04/07 02:32:08;;;;;;;7.80;5.80;;;;;;;;;;5051589;28;20208;-86
2022/04/07 02:34:35;;;;;;;5.53;5.03;;;;;;;;;;5051243;28;20259;-87
2022/04/07 02:37:03;;;;;;;10.37;6.17;;;;;;;;;;5051657;28;20197;-87
2022/04/07 02:39:30;;;;;;;8.27;7.43;;;;;;;;;;5051341;28;20288;-87
2022/04/07 02:41:58;;;;;;;9.17;8.20;;;;;;;;;;5051819;28;20198;-87
2022/04/07 02:44:26;;;;;;;7.97;7.17;;;;;;;;;;5051265;28;20234;-87
2022/04/07 02:46:53;;;;;;;6.90;6.00;;;;;;;;;;5051452;28;20218;-87
2022/04/07 02:49:22;;;;;;;8.20;6.50;;;;;;;;;;5051577;28;20208;-87
2022/04/07 02:51:54;;;;;;;9.03;6.40;;;;;;;;;;5052195;28;20197;-87
2022/04/07 02:54:21;;;;;;;6.83;6.13;;;;;;;;;;5055318;28;20608;-88
2022/04/07 02:56:49;;;;;;;7.60;5.57;;;;;;;;;;5055409;28;20194;-87
2022/04/07 02:59:19;;;;;;;6.53;5.87;;;;;;;;;;5053375;28;20212;-87
2022/04/07 03:01:46;;;;;;;7.27;5.87;;;;;;;;;;5055463;28;20765;-88
2022/04/07 03:04:24;;;;;;;8.40;5.80;;;;;;;;;;5055384;28;20209;-88
2022/04/07 03:06:53;;;;;;;7.73;5.67;;;;;;;;;;5055556;28;20263;-88
2022/04/07 03:09:23;;;;;;;5.40;5.00;;;;;;;;;;5055403;28;20233;-88
2022/04/07 03:12:02;;;;;;;6.97;5.47;;;;;;;;;;5055783;28;20269;-88
2022/04/07 03:17:41;;;;;;;6.60;5.97;;;;;;;;;;5034061;28;20202;-88
2022/04/07 03:22:59;;;;;;;6.63;5.93;;;;;;;;;;5052893;28;20650;-86
2022/04/07 03:25:41;;;;;;;8.13;7.03;;;;;;;;;;5054172;28;20226;-87
2022/04/07 03:28:11;;;;;;;11.97;8.37;;;;;;;;;;5051238;28;20584;-88
2022/04/07 03:30:55;;;;;;;9.37;7.53;;;;;;;;;;5055125;28;20193;-86
2022/04/07 03:33:25;;;;;;;11.07;6.70;;;;;;;;;;5055468;28;20221;-88
2022/04/07 03:35:56;;;;;;;6.87;6.07;;;;;;;;;;5054098;28;20212;-88
2022/04/07 03:39:00;;;;;;;38.83;29.47;;;;;;;;;;5054431;28;20277;-89
2022/04/07 03:41:37;;;;;;;20.57;14.90;;;;;;;;;;5043593;28;20240;-88
2022/04/07 03:44:07;;;;;;;16.20;14.50;;;;;;;;;;5054116;28;20687;-88
2022/04/07 03:49:32;;;;;;;13.17;10.83;;;;;;;;;;5052374;28;20293;-89
2022/04/07 03:52:07;;;;;;;8.97;7.83;;;;;;;;;;5053931;28;20198;-88
2022/04/07 03:55:00;;;;;;;10.10;8.27;;;;;;;;;;5054241;28;20177;-86
2022/04/07 04:00:43;;;;;;;8.67;7.83;;;;;;;;;;5050956;28;20709;-86
2022/04/07 04:03:32;;;;;;;9.90;6.93;;;;;;;;;;5038485;28;20300;-86
2022/04/07 04:06:03;;;;;;;8.43;6.83;;;;;;;;;;5053711;28;20312;-86
2022/04/07 04:08:45;;;;;;;7.33;5.97;;;;;;;;;;5053950;28;20690;-88
2022/04/07 04:17:46;;;;;;;7.50;5.23;;;;;;;;;;4925447;28;20205;-87
2022/04/07 04:20:14;;;;;;;6.37;5.77;;;;;;;;;;5053337;28;20186;-87
2022/04/07 04:22:58;;;;;;;8.27;7.43;;;;;;;;;;5053447;28;20693;-85
2022/04/07 04:25:31;;;;;;;17.00;9.60;;;;;;;;;;5053273;28;20303;-86
2022/04/07 04:28:40;;;;;;;7.50;6.80;;;;;;;;;;5053549;28;20188;-87
2022/04/07 04:31:09;;;;;;;7.87;6.40;;;;;;;;;;5037286;28;20289;-86
2022/04/07 04:33:36;;;;;;;7.77;6.20;;;;;;;;;;5053174;28;20213;-87
2022/04/07 04:36:04;;;;;;;20.07;7.33;;;;;;;;;;5053303;28;20189;-86
2022/04/07 04:41:12;;;;;;;15.93;8.67;;;;;;;;;;5051081;28;20197;-86
2022/04/07 04:43:39;;;;;;;35.10;28.50;;;;;;;;;;5053185;28;20194;-87
2022/04/07 04:46:08;;;;;;;31.17;24.23;;;;;;;;;;5052740;28;20229;-86
2022/04/07 04:48:36;;;;;;;42.60;36.07;;;;;;;;;;5052659;28;20194;-87
2022/04/07 04:51:04;;;;;;;29.10;23.00;;;;;;;;;;5051766;28;20213;-87
2022/04/07 04:53:31;;;;;;;16.27;14.37;;;;;;;;;;5052973;28;20210;-86
2022/04/07 04:55:58;;;;;;;12.70;11.40;;;;;;;;;;5053224;28;20239;-86
2022/04/07 04:58:26;;;;;;;12.60;11.30;;;;;;;;;;5053026;28;20289;-86
2022/04/07 05:00:53;;;;;;;12.47;11.17;;;;;;;;;;5051343;28;20197;-87
2022/04/07 05:03:40;;;;;;;15.83;11.30;;;;;;;;;;5053012;28;20198;-87
2022/04/07 05:06:08;;;;;;;14.70;11.00;;;;;;;;;;5052770;28;20210;-86
2022/04/07 05:08:35;;;;;;;15.17;10.00;;;;;;;;;;5052496;28;20252;-86
2022/04/07 05:11:03;;;;;;;15.33;10.00;;;;;;;;;;5052610;28;20573;-86
2022/04/07 05:13:30;;;;;;;13.87;10.63;;;;;;;;;;5052925;28;20193;-86
2022/04/07 05:15:57;;;;;;;10.97;9.63;;;;;;;;;;5051829;28;20205;-86
2022/04/07 05:18:26;;;;;;;9.83;8.43;;;;;;;;;;5052478;28;20194;-86
2022/04/07 05:20:53;;;;;;;9.33;8.20;;;;;;;;;;5052251;28;20244;-86
2022/04/07 05:23:20;;;;;;;13.63;8.87;;;;;;;;;;5052737;28;20198;-86
2022/04/07 05:25:47;;;;;;;15.50;9.60;;;;;;;;;;5051918;28;20792;-83
2022/04/07 05:28:15;;;;;;;14.30;9.73;;;;;;;;;;5052637;28;20205;-84
2022/04/07 05:30:42;;;;;;;15.63;8.90;;;;;;;;;;5052098;28;20667;-86
2022/04/07 05:33:10;;;;;;;13.23;9.47;;;;;;;;;;5052666;28;20202;-86
2022/04/07 05:35:39;;;;;;;14.07;8.43;;;;;;;;;;5052310;28;20285;-86
2022/04/07 05:38:06;;;;;;;11.43;8.37;;;;;;;;;;5052233;28;20197;-87
2022/04/07 05:40:34;;;;;;;11.73;10.03;;;;;;;;;;5052290;28;20204;-88
2022/04/07 05:43:01;;;;;;;14.17;11.67;;;;;;;;;;5052052;28;20251;-87
2022/04/07 05:45:29;;;;;;;8.63;7.63;;;;;;;;;;5052222;28;20202;-87
2022/04/07 05:47:57;;;;;;;12.93;11.10;;;;;;;;;;5052031;28;20235;-87
2022/04/07 05:50:24;;;;;;;17.13;12.03;;;;;;;;;;5051855;28;20201;-86
2022/04/07 05:52:53;;;;;;;11.50;7.40;;;;;;;;;;5052126;28;20302;-85
2022/04/07 05:55:20;;;;;;;9.83;7.60;;;;;;;;;;5051937;28;20229;-85
2022/04/07 05:57:48;;;;;;;68.20;24.77;;;;;;;;;;5052290;28;20204;-83
2022/04/07 06:00:17;;;;;;;32.23;18.70;;;;;;;;;;5051881;28;20237;-83
2022/04/07 06:02:45;;;;;;;20.80;13.27;;;;;;;;;;5051759;28;20567;-83
2022/04/07 06:05:16;;;;;;;9.83;7.80;;;;;;;;;;5052108;28;20225;-83
2022/04/07 06:07:44;;;;;;;9.80;6.47;;;;;;;;;;5051665;28;20245;-83
2022/04/07 06:10:12;;;;;;;8.50;6.83;;;;;;;;;;5051321;28;20284;-83
2022/04/07 06:12:42;;;;;;;14.87;12.33;;;;;;;;;;5051632;28;20198;-83
2022/04/07 06:15:10;;;;;;;9.87;7.37;;;;;;;;;;5051595;28;20198;-83
2022/04/07 06:17:39;;;;;;;13.83;8.73;;;;;;;;;;5051797;28;20197;-82
2022/04/07 06:20:08;;;;;;;9.57;6.57;;;;;;;;;;5051512;28;20197;-83
2022/04/07 06:22:35;;;;;;;11.77;6.80;;;;;;;;;;5051916;28;20201;-83
2022/04/07 06:25:02;;;;;;;8.73;7.40;;;;;;;;;;5051304;28;20229;-83
2022/04/07 06:27:42;;;;;;;9.73;8.40;;;;;;;;;;5053724;28;20228;-85
2022/04/07 06:30:13;;;;;;;11.07;8.87;;;;;;;;;;5056015;28;20189;-87
2022/04/07 06:32:44;;;;;;;9.80;6.27;;;;;;;;;;5056027;28;20547;-85
2022/04/07 06:35:12;;;;;;;8.23;6.90;;;;;;;;;;5055423;28;20189;-84
2022/04/07 06:37:52;;;;;;;12.63;11.07;;;;;;;;;;5055526;28;20229;-84
2022/04/07 06:40:21;;;;;;;13.50;10.53;;;;;;;;;;5055410;28;20186;-84
2022/04/07 06:42:50;;;;;;;12.27;8.53;;;;;;;;;;5055604;28;20198;-84
2022/04/07 06:45:17;;;;;;;20.10;17.00;;;;;;;;;;5055278;28;20194;-87
2022/04/07 06:47:45;;;;;;;12.33;9.20;;;;;;;;;;5055453;28;20221;-85
2022/04/07 06:50:13;;;;;;;14.57;10.87;;;;;;;;;;5055257;28;20198;-84
2022/04/07 06:52:41;;;;;;;16.50;11.07;;;;;;;;;;5055588;28;20206;-84
2022/04/07 06:55:09;;;;;;;9.73;8.73;;;;;;;;;;5054941;28;20208;-83
2022/04/07 06:57:51;;;;;;;13.77;9.67;;;;;;;;;;5055231;28;20193;-83
2022/04/07 07:00:19;;;;;;;22.47;16.63;;;;;;;;;;5055082;28;20641;-84
2022/04/07 07:02:47;;;;;;;15.40;11.53;;;;;;;;;;5055087;28;20193;-84
2022/04/07 07:05:14;;;;;;;11.63;10.30;;;;;;;;;;5054888;28;20208;-84
2022/04/07 07:07:43;;;;;;;35.50;21.30;;;;;;;;;;5054989;28;20221;-84
2022/04/07 07:10:11;;;;;;;13.63;9.53;;;;;;;;;;5055042;28;20293;-84
2022/04/07 07:12:38;;;;;;;103.30;54.73;;;;;;;;;;5055066;28;20200;-84
2022/04/07 07:15:07;;;;;;;56.20;45.50;;;;;;;;;;5054830;28;20280;-85
2022/04/07 07:17:39;;;;;;;11.07;8.93;;;;;;;;;;5055004;28;20198;-84
2022/04/07 07:20:07;;;;;;;51.50;35.00;;;;;;;;;;5055020;28;20700;-87
2022/04/07 07:22:35;;;;;;;22.07;15.50;;;;;;;;;;5055032;28;20298;-84
2022/04/07 07:25:02;;;;;;;26.10;17.73;;;;;;;;;;5054365;28;20230;-84
2022/04/07 07:27:30;;;;;;;25.47;17.47;;;;;;;;;;5054365;28;20226;-84
2022/04/07 07:29:57;;;;;;;16.77;12.37;;;;;;;;;;5053805;28;20221;-85
2022/04/07 07:32:26;;;;;;;9.70;7.67;;;;;;;;;;5054975;28;20285;-86
2022/04/07 07:34:53;;;;;;;18.30;12.67;;;;;;;;;;5054771;28;20202;-85
2022/04/07 07:37:20;;;;;;;10.77;9.03;;;;;;;;;;5053983;28;20252;-86
2022/04/07 07:39:48;;;;;;;12.63;10.97;;;;;;;;;;5054313;28;20202;-84
2022/04/07 07:42:15;;;;;;;8.93;7.20;;;;;;;;;;5054668;28;20205;-84
2022/04/07 07:44:42;;;;;;;11.77;10.57;;;;;;;;;;5054270;28;20205;-84
2022/04/07 07:47:10;;;;;;;9.90;8.83;;;;;;;;;;5054219;28;20228;-84
2022/04/07 07:49:38;;;;;;;10.20;9.20;;;;;;;;;;5053795;28;20289;-83
2022/04/07 07:52:06;;;;;;;10.83;8.10;;;;;;;;;;5054585;28;20202;-84
2022/04/07 07:54:33;;;;;;;8.47;7.67;;;;;;;;;;5053956;28;20206;-84
2022/04/07 07:57:00;;;;;;;11.47;6.63;;;;;;;;;;5054219;28;20194;-84
2022/04/07 07:59:28;;;;;;;7.90;5.47;;;;;;;;;;5053922;28;20386;-84
2022/04/07 08:01:55;;;;;;;19.03;11.53;;;;;;;;;;5053998;28;20202;-84
2022/04/07 08:04:22;;;;;;;22.13;17.60;;;;;;;;;;5054262;28;20591;-83
2022/04/07 08:06:51;;;;;;;7.23;6.53;;;;;;;;;;5053832;28;20201;-83
2022/04/07 08:09:18;;;;;;;10.53;6.23;;;;;;;;;;5054006;28;20587;-83
2022/04/07 08:11:45;;;;;;;8.37;6.03;;;;;;;;;;5053874;28;20201;-84
2022/04/07 08:14:12;;;;;;;6.37;5.53;;;;;;;;;;5053719;28;20202;-84
2022/04/07 08:16:40;;;;;;;7.57;4.63;;;;;;;;;;5054072;28;20656;-83
2022/04/07 08:19:09;;;;;;;6.83;6.00;;;;;;;;;;5053703;28;20202;-83
2022/04/07 08:21:36;;;;;;;9.43;6.00;;;;;;;;;;5053692;28;20198;-83
2022/04/07 08:24:05;;;;;;;9.03;6.57;;;;;;;;;;5053307;28;20244;-82
2022/04/07 08:26:32;;;;;;;10.33;6.80;;;;;;;;;;5053639;28;20204;-83
2022/04/07 08:29:00;;;;;;;8.37;5.97;;;;;;;;;;5053036;28;20304;-83
2022/04/07 08:31:27;;;;;;;8.57;6.87;;;;;;;;;;5053455;28;20197;-84
2022/04/07 08:33:54;;;;;;;9.20;5.87;;;;;;;;;;5053180;28;20197;-82
2022/04/07 08:36:21;;;;;;;10.50;6.10;;;;;;;;;;5053806;28;20637;-83
2022/04/07 08:38:49;;;;;;;7.37;6.40;;;;;;;;;;5053163;28;20589;-84
2022/04/07 08:41:19;;;;;;;8.73;5.60;;;;;;;;;;5053671;28;20204;-83
2022/04/07 08:43:46;;;;;;;7.77;7.00;;;;;;;;;;5053669;28;20205;-83
2022/04/07 08:46:14;;;;;;;11.80;7.60;;;;;;;;;;5053253;28;20298;-83
2022/04/07 08:48:43;;;;;;;10.23;6.40;;;;;;;;;;5052865;28;20313;-82
2022/04/07 08:51:11;;;;;;;9.77;5.87;;;;;;;;;;5052420;28;20261;-83
2022/04/07 08:53:39;;;;;;;6.87;6.17;;;;;;;;;;5053221;28;20289;-83
2022/04/07 08:56:07;;;;;;;6.40;5.73;;;;;;;;;;5053012;28;20277;-83
2022/04/07 08:58:36;;;;;;;30.27;21.30;;;;;;;;;;5053152;28;20275;-83
2022/04/07 09:01:04;;;;;;;15.50;11.10;;;;;;;;;;5052701;28;20204;-83
2022/04/07 09:03:31;;;;;;;28.53;14.30;;;;;;;;;;5052853;28;20209;-84
2022/04/07 09:06:00;;;;;;;20.37;11.77;;;;;;;;;;5052997;28;20638;-83
2022/04/07 09:08:31;;;;;;;16.37;9.47;;;;;;;;;;5052616;28;20317;-83
2022/04/07 09:11:00;;;;;;;78.27;36.23;;;;;;;;;;5052588;28;20228;-83
2022/04/07 09:13:30;;;;;;;12.07;9.53;;;;;;;;;;5052962;28;20634;-83
2022/04/07 09:16:00;;;;;;;13.97;7.67;;;;;;;;;;5052520;28;20226;-83
2022/04/07 09:18:27;;;;;;;9.87;8.60;;;;;;;;;;5052693;28;20201;-83
2022/04/07 09:20:55;;;;;;;9.07;6.50;;;;;;;;;;5052430;28;20666;-83
2022/04/07 09:23:22;;;;;;;10.20;5.80;;;;;;;;;;5052554;28;20576;-82
2022/04/07 09:25:50;;;;;;;7.57;5.30;;;;;;;;;;5052187;28;20229;-83
2022/04/07 09:28:28;;;;;;;11.47;6.40;;;;;;;;;;5052508;28;20654;-83
2022/04/07 09:30:57;;;;;;;5.30;4.77;;;;;;;;;;5052239;28;20194;-83
2022/04/07 09:33:27;;;;;;;6.70;5.80;;;;;;;;;;5052395;28;20230;-83
2022/04/07 09:36:01;;;;;;;8.20;6.37;;;;;;;;;;5051847;28;20201;-83
2022/04/07 09:38:29;;;;;;;11.00;7.90;;;;;;;;;;5052565;28;20208;-84
2022/04/07 09:41:04;;;;;;;10.03;8.20;;;;;;;;;;5052066;28;20198;-83
2022/04/07 09:43:31;;;;;;;8.87;7.10;;;;;;;;;;5052578;28;20185;-83
2022/04/07 09:45:58;;;;;;;7.90;6.20;;;;;;;;;;5052194;28;20204;-83
2022/04/07 09:48:27;;;;;;;10.37;7.27;;;;;;;;;;5051991;28;20221;-83
2022/04/07 09:51:05;;;;;;;8.80;6.50;;;;;;;;;;5051884;28;20206;-83
2022/04/07 09:53:37;;;;;;;9.03;6.57;;;;;;;;;;5051651;28;20240;-82
2022/04/07 09:56:05;;;;;;;6.80;6.03;;;;;;;;;;5052003;28;20194;-83
2022/04/07 09:58:33;;;;;;;12.07;7.73;;;;;;;;;;5052254;28;20194;-83
2022/04/07 10:01:02;;;;;;;12.23;6.53;;;;;;;;;;5052032;28;20205;-83
2022/04/07 10:03:31;;;;;;;15.77;13.07;;;;;;;;;;5051834;28;20284;-83
2022/04/07 10:05:59;;;;;;;9.47;6.00;;;;;;;;;;5051660;28;20194;-83
2022/04/07 10:08:27;;;;;;;9.63;6.33;;;;;;;;;;5051771;28;20238;-83
2022/04/07 10:10:54;;;;;;;9.87;6.87;;;;;;;;;;5051731;28;20586;-83
2022/04/07 10:13:22;;;;;;;9.63;7.53;;;;;;;;;;5051572;28;20233;-83
2022/04/07 10:15:49;;;;;;;11.47;6.73;;;;;;;;;;5052134;28;20198;-83
2022/04/07 10:18:22;;;;;;;9.73;8.03;;;;;;;;;;5051702;28;20248;-83
2022/04/07 10:20:54;;;;;;;12.43;6.50;;;;;;;;;;5051615;28;20178;-83
2022/04/07 10:23:32;;;;;;;7.07;6.37;;;;;;;;;;5051657;28;20183;-83
2022/04/07 10:26:00;;;;;;;7.93;7.03;;;;;;;;;;5051384;28;20186;-83
2022/04/07 10:28:27;;;;;;;11.03;7.20;;;;;;;;;;5051490;28;20229;-83
2022/04/07 10:30:55;;;;;;;9.80;8.53;;;;;;;;;;5051270;28;20293;-83
2022/04/07 10:33:47;;;;;;;11.50;7.50;;;;;;;;;;5051355;28;20618;-83
2022/04/07 10:36:17;;;;;;;6.63;5.47;;;;;;;;;;5032307;28;20211;-83
2022/04/07 10:38:46;;;;;;;7.07;5.97;;;;;;;;;;5051306;28;20696;-83
2022/04/07 10:41:46;;;;;;;9.50;6.43;;;;;;;;;;5051436;28;20199;-83
2022/04/07 10:44:15;;;;;;;9.37;4.73;;;;;;;;;;5051001;28;20284;-83
2022/04/07 10:46:42;;;;;;;6.67;5.57;;;;;;;;;;5051671;28;20589;-83
2022/04/07 10:49:10;;;;;;;6.60;5.83;;;;;;;;;;5051460;28;20325;-82
2022/04/07 10:51:47;;;;;;;7.10;4.80;;;;;;;;;;5051235;28;20293;-82
2022/04/07 10:54:15;;;;;;;10.07;5.40;;;;;;;;;;5051133;28;20197;-82
2022/04/07 10:56:48;;;;;;;9.07;4.90;;;;;;;;;;5051504;28;20288;-83
2022/04/07 10:59:21;;;;;;;6.53;4.87;;;;;;;;;;5051130;28;20186;-82
2022/04/07 11:01:54;;;;;;;10.67;5.33;;;;;;;;;;5051229;28;20240;-83
2022/04/07 11:04:44;;;;;;;36.30;19.10;;;;;;;;;;5051184;28;20193;-82
2022/04/07 11:07:18;;;;;;;61.17;35.97;;;;;;;;;;5051625;28;20248;-83
2022/04/07 11:09:46;;;;;;;11.07;6.80;;;;;;;;;;5051147;28;20218;-83
2022/04/07 11:12:22;;;;;;;7.73;5.43;;;;;;;;;;5051799;28;20280;-83
2022/04/07 11:14:50;;;;;;;7.43;6.67;;;;;;;;;;5055184;28;20551;-82
2022/04/07 11:17:24;;;;;;;14.63;6.50;;;;;;;;;;5055209;28;20197;-82
2022/04/07 11:20:00;;;;;;;13.43;4.97;;;;;;;;;;5054795;28;20224;-83
2022/04/07 11:22:48;;;;;;;7.43;5.00;;;;;;;;;;5054831;28;20186;-83
2022/04/07 11:25:16;;;;;;;7.10;4.47;;;;;;;;;;5054414;28;20234;-83
2022/04/07 11:27:45;;;;;;;6.30;5.00;;;;;;;;;;5054634;28;20231;-83
2022/04/07 11:30:13;;;;;;;8.83;4.23;;;;;;;;;;5054148;28;20202;-83
2022/04/07 11:33:18;;;;;;;9.20;5.30;;;;;;;;;;5054563;28;20204;-83
2022/04/07 11:35:45;;;;;;;9.73;4.60;;;;;;;;;;5054372;28;20670;-83
2022/04/07 11:38:16;;;;;;;7.53;4.30;;;;;;;;;;5054443;28;20190;-82
2022/04/07 11:40:59;;;;;;;7.20;4.50;;;;;;;;;;5054525;28;20620;-82
2022/04/07 11:43:26;;;;;;;8.10;4.30;;;;;;;;;;5054730;28;20177;-83
2022/04/07 11:45:54;;;;;;;8.80;4.33;;;;;;;;;;5054443;28;20201;-83
2022/04/07 11:48:22;;;;;;;8.90;5.40;;;;;;;;;;5054445;28;20221;-82
2022/04/07 11:50:50;;;;;;;10.40;4.27;;;;;;;;;;5054167;28;20202;-82
2022/04/07 11:53:19;;;;;;;6.97;4.87;;;;;;;;;;5054276;28;20190;-82
2022/04/07 11:55:46;;;;;;;8.83;4.63;;;;;;;;;;5054227;28;20230;-83
2022/04/07 11:58:16;;;;;;;6.17;4.17;;;;;;;;;;5054168;28;20234;-83
2022/04/07 12:00:44;;;;;;;7.83;4.40;;;;;;;;;;5053708;28;20190;-83
2022/04/07 12:03:11;;;;;;;9.10;5.63;;;;;;;;;;5053999;28;20277;-83
2022/04/07 12:05:38;;;;;;;9.43;7.10;;;;;;;;;;5053722;28;20671;-82
2022/04/07 12:08:06;;;;;;;8.83;5.57;;;;;;;;;;5053765;28;20203;-83
2022/04/07 12:10:35;;;;;;;6.57;4.83;;;;;;;;;;5053185;28;20260;-82
2022/04/07 12:13:03;;;;;;;8.73;4.83;;;;;;;;;;5053751;28;20198;-83
2022/04/07 12:15:30;;;;;;;12.63;4.93;;;;;;;;;;5053869;28;20199;-83
2022/04/07 12:18:01;;;;;;;7.13;4.93;;;;;;;;;;5053813;28;20203;-83
2022/04/07 12:20:29;;;;;;;20.13;4.93;;;;;;;;;;5053187;28;20244;-82
2022/04/07 12:23:07;;;;;;;10.13;4.53;;;;;;;;;;5053617;28;20679;-83
2022/04/07 12:25:36;;;;;;;10.17;4.30;;;;;;;;;;5052110;28;20226;-83
2022/04/07 12:28:10;;;;;;;8.87;5.30;;;;;;;;;;5053690;28;20202;-83
2022/04/07 12:30:45;;;;;;;11.23;5.97;;;;;;;;;;5053396;28;20202;-82
2022/04/07 12:33:12;;;;;;;7.23;4.80;;;;;;;;;;5053418;28;20206;-83
2022/04/07 12:35:45;;;;;;;6.47;5.83;;;;;;;;;;5053252;28;20209;-82
2022/04/07 12:38:13;;;;;;;6.00;5.23;;;;;;;;;;5053262;28;20952;-83
2022/04/07 12:40:42;;;;;;;15.60;7.53;;;;;;;;;;5053249;28;20746;-82
2022/04/07 12:43:10;;;;;;;9.33;5.27;;;;;;;;;;5053300;28;20211;-83
2022/04/07 12:45:37;;;;;;;7.87;5.43;;;;;;;;;;5053130;28;20211;-83
2022/04/07 12:48:10;;;;;;;10.80;7.00;;;;;;;;;;5053459;28;20205;-83
2022/04/07 12:50:38;;;;;;;8.97;6.17;;;;;;;;;;5053021;28;20568;-82
2022/04/07 12:53:05;;;;;;;10.00;5.20;;;;;;;;;;5053068;28;20390;-83
2022/04/07 12:55:37;;;;;;;14.47;5.43;;;;;;;;;;5052772;28;20293;-83
2022/04/07 12:58:08;;;;;;;8.20;5.03;;;;;;;;;;5052991;28;20731;-83
2022/04/07 13:00:35;;;;;;;5.17;4.67;;;;;;;;;;5052529;28;20187;-83
2022/04/07 13:03:13;;;;;;;5.13;4.50;;;;;;;;;;5053249;28;20581;-83
2022/04/07 13:05:41;;;;;;;5.43;4.87;;;;;;;;;;5052719;28;20187;-83
2022/04/07 13:08:09;;;;;;;9.43;5.87;;;;;;;;;;5053172;28;20194;-83
2022/04/07 13:10:37;;;;;;;8.93;6.10;;;;;;;;;;5052427;28;20223;-82
2022/04/07 13:13:05;;;;;;;10.07;6.13;;;;;;;;;;5052701;28;20214;-82
2022/04/07 13:15:33;;;;;;;9.53;5.57;;;;;;;;;;5052620;28;20198;-82
2022/04/07 13:18:01;;;;;;;7.90;4.37;;;;;;;;;;5052698;28;20197;-83
2022/04/07 13:20:29;;;;;;;4.57;3.60;;;;;;;;;;5052540;28;20296;-83
2022/04/07 13:22:56;;;;;;;8.97;4.67;;;;;;;;;;5051987;28;20202;-83
2022/04/07 13:25:23;;;;;;;7.10;3.63;;;;;;;;;;5052260;28;20229;-83
2022/04/07 13:27:50;;;;;;;13.27;4.33;;;;;;;;;;5052780;28;20281;-82
2022/04/07 13:30:19;;;;;;;11.83;4.97;;;;;;;;;;5052179;28;20226;-83
2022/04/07 13:32:46;;;;;;;11.20;4.60;;;;;;;;;;5052198;28;20202;-82
2022/04/07 13:35:13;;;;;;;8.50;3.97;;;;;;;;;;5051915;28;20285;-83
2022/04/07 13:37:40;;;;;;;11.87;5.63;;;;;;;;;;5052279;28;20202;-82
2022/04/07 13:40:08;;;;;;;7.30;4.53;;;;;;;;;;5052062;28;20200;-82
2022/04/07 13:42:36;;;;;;;14.60;5.13;;;;;;;;;;5051943;28;20295;-82
2022/04/07 13:45:05;;;;;;;10.77;5.40;;;;;;;;;;5052012;28;20675;-83
2022/04/07 13:47:34;;;;;;;16.37;6.10;;;;;;;;;;5052264;28;20236;-83
2022/04/07 13:50:01;;;;;;;17.53;6.80;;;;;;;;;;5052007;28;20629;-82
2022/04/07 13:52:28;;;;;;;15.20;7.17;;;;;;;;;;5051991;28;20198;-82
2022/04/07 13:54:56;;;;;;;13.70;7.20;;;;;;;;;;5051763;28;20212;-82
2022/04/07 13:57:24;;;;;;;15.10;6.40;;;;;;;;;;5052042;28;20239;-83
2022/04/07 13:59:51;;;;;;;15.77;7.47;;;;;;;;;;5051615;28;20689;-82
2022/04/07 14:02:19;;;;;;;15.77;8.67;;;;;;;;;;5052221;28;20212;-83
2022/04/07 14:04:48;;;;;;;16.97;8.70;;;;;;;;;;5051656;28;20205;-82
2022/04/07 14:07:15;;;;;;;10.23;5.87;;;;;;;;;;5051905;28;20210;-82
2022/04/07 14:09:42;;;;;;;13.07;5.80;;;;;;;;;;5051321;28;20335;-82
2022/04/07 14:12:10;;;;;;;9.90;5.47;;;;;;;;;;5052065;28;20201;-82
2022/04/07 14:14:37;;;;;;;15.40;6.07;;;;;;;;;;5051595;28;20210;-82
2022/04/07 14:17:05;;;;;;;10.70;5.50;;;;;;;;;;5051552;28;20207;-82
2022/04/07 14:19:32;;;;;;;10.20;5.10;;;;;;;;;;5051979;28;20207;-82
2022/04/07 14:22:01;;;;;;;9.80;4.33;;;;;;;;;;5051493;28;20194;-83
2022/04/07 14:24:28;;;;;;;6.27;3.83;;;;;;;;;;5051110;28;20251;-82
2022/04/07 14:26:55;;;;;;;10.97;5.53;;;;;;;;;;5046822;28;20198;-82
2022/04/07 14:29:22;;;;;;;12.87;5.20;;;;;;;;;;5050160;28;20662;-82
2022/04/07 14:31:50;;;;;;;9.63;5.20;;;;;;;;;;5031644;28;20237;-82
2022/04/07 14:34:17;;;;;;;7.07;4.47;;;;;;;;;;5038815;28;20300;-82
2022/04/07 14:36:45;;;;;;;15.20;6.10;;;;;;;;;;5067161;28;20207;-82
2022/04/07 14:39:14;;;;;;;17.00;6.93;;;;;;;;;;5071191;28;20203;-82
2022/04/07 14:41:41;;;;;;;9.40;4.97;;;;;;;;;;5071485;28;20209;-82
2022/04/07 14:44:08;;;;;;;14.27;5.93;;;;;;;;;;5071633;28;20643;-83
2022/04/07 14:46:35;;;;;;;19.53;5.63;;;;;;;;;;5071313;28;20200;-87
2022/04/07 14:49:03;;;;;;;11.33;6.53;;;;;;;;;;5074011;28;20208;-83
2022/04/07 14:51:32;;;;;;;14.33;6.53;;;;;;;;;;5075902;28;20196;-83
2022/04/07 14:54:00;;;;;;;15.00;5.90;;;;;;;;;;5068477;28;20209;-82
2022/04/07 14:56:29;;;;;;;6.53;4.87;;;;;;;;;;5055250;28;20580;-82
2022/04/07 14:58:56;;;;;;;5.77;4.77;;;;;;;;;;5054895;28;20290;-82
2022/04/07 15:01:23;;;;;;;9.83;4.63;;;;;;;;;;5055190;28;20204;-82
2022/04/07 15:03:50;;;;;;;15.57;5.53;;;;;;;;;;5054917;28;20694;-82
2022/04/07 15:06:17;;;;;;;14.77;6.33;;;;;;;;;;5054869;28;20239;-82
2022/04/07 15:08:45;;;;;;;14.27;9.17;;;;;;;;;;5054993;28;20571;-82
2022/04/07 15:11:12;;;;;;;12.67;8.37;;;;;;;;;;5054970;28;20231;-82